sensor_id;sensor_type;location;lat;lon;timestamp;pressure;altitude;pressure_sealevel;temperature;humidity
73651;BME280;61944;52.538;6.108;2022-12-20T00:01:44;101207.22;;;8.55;100.00
73651;BME280;61944;52.538;6.108;2022-12-20T00:04:09;101215.53;;;8.67;100.00
73651;BME280;61944;52.538;6.108;2022-12-20T00:06:35;101214.97;;;8.62;100.00
73651;BME280;61944;52.538;6.108;2022-12-20T00:09:02;101205.63;;;8.54;100.00
73651;BME280;61944;52.538;6.108;2022-12-20T00:11:28;101222.72;;;8.52;100.00
73651;BME280;61944;52.538;6.108;2022-12-20T00:13:54;101218.03;;;8.57;100.00
73651;BME280;61944;52.538;6.108;2022-12-20T00:16:22;101202.63;;;8.47;100.00
73651;BME280;61944;52.538;6.108;2022-12-20T00:18:53;101215.34;;;8.60;100.00
73651;BME280;61944;52.538;6.108;2022-12-20T00:21:19;101196.88;;;8.55;100.00
73651;BME280;61944;52.538;6.108;2022-12-20T00:23:44;101194.97;;;8.44;100.00
73651;BME280;61944;52.538;6.108;2022-12-20T00:26:16;101196.28;;;8.62;100.00
73651;BME280;61944;52.538;6.108;2022-12-20T00:28:43;101192.72;;;8.49;100.00
73651;BME280;61944;52.538;6.108;2022-12-20T00:31:11;101184.72;;;8.48;100.00
73651;BME280;61944;52.538;6.108;2022-12-20T00:33:37;101181.03;;;8.60;100.00
73651;BME280;61944;52.538;6.108;2022-12-20T00:36:04;101177.91;;;8.61;100.00
73651;BME280;61944;52.538;6.108;2022-12-20T00:38:30;101160.06;;;8.50;100.00
73651;BME280;61944;52.538;6.108;2022-12-20T00:43:26;101176.59;;;8.43;100.00
73651;BME280;61944;52.538;6.108;2022-12-20T00:45:51;101182.38;;;8.50;100.00
73651;BME280;61944;52.538;6.108;2022-12-20T00:48:16;101182.63;;;8.45;100.00
73651;BME280;61944;52.538;6.108;2022-12-20T00:50:42;101180.56;;;8.42;100.00
73651;BME280;61944;52.538;6.108;2022-12-20T00:53:07;101187.53;;;8.35;100.00
73651;BME280;61944;52.538;6.108;2022-12-20T00:55:34;101173.25;;;8.37;100.00
73651;BME280;61944;52.538;6.108;2022-12-20T00:58:04;101175.66;;;8.39;100.00
73651;BME280;61944;52.538;6.108;2022-12-20T01:00:30;101164.50;;;8.39;100.00
73651;BME280;61944;52.538;6.108;2022-12-20T01:02:55;101168.44;;;8.50;100.00
73651;BME280;61944;52.538;6.108;2022-12-20T01:05:20;101167.38;;;8.54;100.00
73651;BME280;61944;52.538;6.108;2022-12-20T01:07:45;101167.91;;;8.60;100.00
73651;BME280;61944;52.538;6.108;2022-12-20T01:10:11;101170.50;;;8.53;100.00
73651;BME280;61944;52.538;6.108;2022-12-20T01:12:36;101170.03;;;8.51;100.00
73651;BME280;61944;52.538;6.108;2022-12-20T01:15:02;101173.63;;;8.51;100.00
73651;BME280;61944;52.538;6.108;2022-12-20T01:17:27;101159.56;;;8.60;100.00
73651;BME280;61944;52.538;6.108;2022-12-20T01:19:53;101154.44;;;8.62;100.00
73651;BME280;61944;52.538;6.108;2022-12-20T01:22:18;101151.97;;;8.61;100.00
73651;BME280;61944;52.538;6.108;2022-12-20T01:24:43;101164.41;;;8.63;100.00
73651;BME280;61944;52.538;6.108;2022-12-20T01:27:09;101163.38;;;8.55;100.00
73651;BME280;61944;52.538;6.108;2022-12-20T01:29:34;101150.38;;;8.75;100.00
73651;BME280;61944;52.538;6.108;2022-12-20T01:31:59;101168.38;;;8.78;100.00
73651;BME280;61944;52.538;6.108;2022-12-20T01:34:25;101151.19;;;8.76;100.00
73651;BME280;61944;52.538;6.108;2022-12-20T01:36:50;101151.28;;;8.80;100.00
73651;BME280;61944;52.538;6.108;2022-12-20T01:39:16;101141.94;;;8.88;100.00
73651;BME280;61944;52.538;6.108;2022-12-20T01:41:43;101154.16;;;8.99;100.00
73651;BME280;61944;52.538;6.108;2022-12-20T01:46:41;101136.78;;;9.06;100.00
73651;BME280;61944;52.538;6.108;2022-12-20T01:51:49;101142.63;;;9.16;100.00
73651;BME280;61944;52.538;6.108;2022-12-20T01:54:20;101142.47;;;9.09;100.00
73651;BME280;61944;52.538;6.108;2022-12-20T01:56:57;101148.72;;;9.38;100.00
73651;BME280;61944;52.538;6.108;2022-12-20T01:59:24;101144.41;;;9.25;100.00
73651;BME280;61944;52.538;6.108;2022-12-20T02:01:50;101144.91;;;9.46;100.00
73651;BME280;61944;52.538;6.108;2022-12-20T02:04:15;101147.19;;;9.41;100.00
73651;BME280;61944;52.538;6.108;2022-12-20T02:06:41;101140.88;;;9.44;100.00
73651;BME280;61944;52.538;6.108;2022-12-20T02:09:06;101143.22;;;9.42;100.00
73651;BME280;61944;52.538;6.108;2022-12-20T02:11:36;101142.66;;;9.52;100.00
73651;BME280;61944;52.538;6.108;2022-12-20T02:17:02;101140.25;;;9.34;100.00
73651;BME280;61944;52.538;6.108;2022-12-20T02:22:15;101148.19;;;9.32;100.00
73651;BME280;61944;52.538;6.108;2022-12-20T02:25:10;101141.47;;;9.18;100.00
73651;BME280;61944;52.538;6.108;2022-12-20T02:30:22;101138.38;;;9.23;100.00
73651;BME280;61944;52.538;6.108;2022-12-20T02:32:58;101129.84;;;9.15;100.00
73651;BME280;61944;52.538;6.108;2022-12-20T02:35:28;101129.09;;;9.19;100.00
73651;BME280;61944;52.538;6.108;2022-12-20T02:38:02;101136.22;;;9.16;100.00
73651;BME280;61944;52.538;6.108;2022-12-20T02:40:32;101125.78;;;9.13;100.00
73651;BME280;61944;52.538;6.108;2022-12-20T02:43:02;101121.28;;;9.08;100.00
73651;BME280;61944;52.538;6.108;2022-12-20T02:45:32;101113.47;;;8.98;100.00
73651;BME280;61944;52.538;6.108;2022-12-20T02:48:05;101109.03;;;9.13;100.00
73651;BME280;61944;52.538;6.108;2022-12-20T02:50:36;101106.25;;;8.97;100.00
73651;BME280;61944;52.538;6.108;2022-12-20T02:53:03;101092.34;;;9.16;100.00
73651;BME280;61944;52.538;6.108;2022-12-20T02:55:44;101090.50;;;9.05;100.00
73651;BME280;61944;52.538;6.108;2022-12-20T02:58:20;101089.50;;;8.97;100.00
73651;BME280;61944;52.538;6.108;2022-12-20T03:00:50;101087.91;;;8.96;100.00
73651;BME280;61944;52.538;6.108;2022-12-20T03:03:16;101082.66;;;8.94;100.00
73651;BME280;61944;52.538;6.108;2022-12-20T03:05:53;101089.94;;;8.99;100.00
73651;BME280;61944;52.538;6.108;2022-12-20T03:08:19;101089.78;;;8.92;100.00
73651;BME280;61944;52.538;6.108;2022-12-20T03:10:44;101083.03;;;8.93;100.00
73651;BME280;61944;52.538;6.108;2022-12-20T03:13:10;101076.28;;;8.94;100.00
73651;BME280;61944;52.538;6.108;2022-12-20T03:15:35;101090.50;;;8.89;100.00
73651;BME280;61944;52.538;6.108;2022-12-20T03:18:01;101093.13;;;8.82;100.00
73651;BME280;61944;52.538;6.108;2022-12-20T03:20:27;101084.81;;;8.85;100.00
73651;BME280;61944;52.538;6.108;2022-12-20T03:22:52;101095.81;;;8.78;100.00
73651;BME280;61944;52.538;6.108;2022-12-20T03:25:18;101098.72;;;8.82;100.00
73651;BME280;61944;52.538;6.108;2022-12-20T03:27:44;101091.69;;;8.88;100.00
73651;BME280;61944;52.538;6.108;2022-12-20T03:30:10;101088.97;;;8.75;100.00
73651;BME280;61944;52.538;6.108;2022-12-20T03:32:35;101085.09;;;8.64;100.00
73651;BME280;61944;52.538;6.108;2022-12-20T03:35:01;101096.00;;;8.69;100.00
73651;BME280;61944;52.538;6.108;2022-12-20T03:37:26;101097.44;;;8.79;100.00
73651;BME280;61944;52.538;6.108;2022-12-20T03:39:52;101090.88;;;8.71;100.00
73651;BME280;61944;52.538;6.108;2022-12-20T03:42:17;101090.66;;;8.64;100.00
73651;BME280;61944;52.538;6.108;2022-12-20T03:44:42;101099.88;;;8.65;100.00
73651;BME280;61944;52.538;6.108;2022-12-20T03:47:08;101094.28;;;8.65;100.00
73651;BME280;61944;52.538;6.108;2022-12-20T03:49:33;101102.13;;;8.59;100.00
73651;BME280;61944;52.538;6.108;2022-12-20T03:51:58;101099.78;;;8.61;100.00
73651;BME280;61944;52.538;6.108;2022-12-20T03:54:24;101093.47;;;8.64;100.00
73651;BME280;61944;52.538;6.108;2022-12-20T03:56:49;101091.84;;;8.63;100.00
73651;BME280;61944;52.538;6.108;2022-12-20T03:59:15;101081.50;;;8.64;100.00
73651;BME280;61944;52.538;6.108;2022-12-20T04:01:40;101087.88;;;8.64;100.00
73651;BME280;61944;52.538;6.108;2022-12-20T04:04:08;101088.06;;;8.71;100.00
73651;BME280;61944;52.538;6.108;2022-12-20T04:06:34;101076.66;;;8.61;100.00
73651;BME280;61944;52.538;6.108;2022-12-20T04:08:59;101077.56;;;8.65;100.00
73651;BME280;61944;52.538;6.108;2022-12-20T04:11:25;101081.16;;;8.65;100.00
73651;BME280;61944;52.538;6.108;2022-12-20T04:13:52;101078.53;;;8.72;100.00
73651;BME280;61944;52.538;6.108;2022-12-20T04:16:23;101080.16;;;8.73;100.00
73651;BME280;61944;52.538;6.108;2022-12-20T04:18:48;101067.34;;;8.72;100.00
73651;BME280;61944;52.538;6.108;2022-12-20T04:21:14;101074.56;;;8.73;100.00
73651;BME280;61944;52.538;6.108;2022-12-20T04:23:41;101069.00;;;8.73;100.00
73651;BME280;61944;52.538;6.108;2022-12-20T04:26:08;101060.63;;;8.73;100.00
73651;BME280;61944;52.538;6.108;2022-12-20T04:28:34;101066.19;;;8.73;100.00
73651;BME280;61944;52.538;6.108;2022-12-20T04:30:59;101064.22;;;8.74;100.00
73651;BME280;61944;52.538;6.108;2022-12-20T04:33:26;101069.25;;;8.84;100.00
73651;BME280;61944;52.538;6.108;2022-12-20T04:35:52;101060.53;;;8.86;100.00
73651;BME280;61944;52.538;6.108;2022-12-20T04:38:19;101054.94;;;8.86;100.00
73651;BME280;61944;52.538;6.108;2022-12-20T04:40:47;101046.47;;;8.82;100.00
73651;BME280;61944;52.538;6.108;2022-12-20T04:43:13;101052.75;;;8.95;100.00
73651;BME280;61944;52.538;6.108;2022-12-20T04:45:38;101057.00;;;8.89;100.00
73651;BME280;61944;52.538;6.108;2022-12-20T04:48:03;101056.28;;;8.92;100.00
73651;BME280;61944;52.538;6.108;2022-12-20T04:50:29;101048.34;;;8.94;100.00
73651;BME280;61944;52.538;6.108;2022-12-20T04:52:54;101054.47;;;9.00;100.00
73651;BME280;61944;52.538;6.108;2022-12-20T04:55:39;101035.03;;;8.87;100.00
73651;BME280;61944;52.538;6.108;2022-12-20T04:58:05;101041.94;;;8.93;100.00
73651;BME280;61944;52.538;6.108;2022-12-20T05:00:31;101044.94;;;8.85;100.00
73651;BME280;61944;52.538;6.108;2022-12-20T05:02:57;101024.25;;;8.86;100.00
73651;BME280;61944;52.538;6.108;2022-12-20T05:05:22;101030.44;;;8.95;100.00
73651;BME280;61944;52.538;6.108;2022-12-20T05:07:48;101030.72;;;8.90;100.00
73651;BME280;61944;52.538;6.108;2022-12-20T05:10:13;101025.28;;;8.97;100.00
73651;BME280;61944;52.538;6.108;2022-12-20T05:12:39;101026.47;;;8.96;100.00
73651;BME280;61944;52.538;6.108;2022-12-20T05:15:04;101039.25;;;8.97;100.00
73651;BME280;61944;52.538;6.108;2022-12-20T05:17:31;101024.94;;;8.99;100.00
73651;BME280;61944;52.538;6.108;2022-12-20T05:19:57;101016.91;;;8.97;100.00
73651;BME280;61944;52.538;6.108;2022-12-20T05:22:22;101018.53;;;8.98;100.00
73651;BME280;61944;52.538;6.108;2022-12-20T05:25:07;101010.44;;;8.93;100.00
73651;BME280;61944;52.538;6.108;2022-12-20T05:27:51;101017.34;;;8.99;100.00
73651;BME280;61944;52.538;6.108;2022-12-20T05:30:17;101012.06;;;8.94;100.00
73651;BME280;61944;52.538;6.108;2022-12-20T05:32:42;101010.88;;;8.95;100.00
73651;BME280;61944;52.538;6.108;2022-12-20T05:35:08;101009.19;;;8.90;100.00
73651;BME280;61944;52.538;6.108;2022-12-20T05:37:33;101010.09;;;8.94;100.00
73651;BME280;61944;52.538;6.108;2022-12-20T05:39:58;101010.00;;;8.91;100.00
73651;BME280;61944;52.538;6.108;2022-12-20T05:42:24;101016.91;;;8.97;100.00
73651;BME280;61944;52.538;6.108;2022-12-20T05:44:49;101006.47;;;8.94;100.00
73651;BME280;61944;52.538;6.108;2022-12-20T05:47:15;101007.19;;;8.91;100.00
73651;BME280;61944;52.538;6.108;2022-12-20T05:49:40;101004.13;;;8.96;100.00
73651;BME280;61944;52.538;6.108;2022-12-20T05:52:06;101005.31;;;8.95;100.00
73651;BME280;61944;52.538;6.108;2022-12-20T05:54:31;101005.84;;;9.01;100.00
73651;BME280;61944;52.538;6.108;2022-12-20T05:56:57;101004.06;;;8.92;100.00
73651;BME280;61944;52.538;6.108;2022-12-20T05:59:22;101008.09;;;8.95;100.00
73651;BME280;61944;52.538;6.108;2022-12-20T06:01:48;101000.28;;;8.85;100.00
73651;BME280;61944;52.538;6.108;2022-12-20T06:04:13;100988.00;;;8.89;100.00
73651;BME280;61944;52.538;6.108;2022-12-20T06:06:38;100987.66;;;8.91;100.00
73651;BME280;61944;52.538;6.108;2022-12-20T06:09:04;100995.59;;;8.89;100.00
73651;BME280;61944;52.538;6.108;2022-12-20T06:11:29;100999.00;;;8.98;100.00
73651;BME280;61944;52.538;6.108;2022-12-20T06:13:55;101003.75;;;8.98;100.00
73651;BME280;61944;52.538;6.108;2022-12-20T06:16:20;100999.72;;;8.95;100.00
73651;BME280;61944;52.538;6.108;2022-12-20T06:18:47;101002.22;;;9.00;100.00
73651;BME280;61944;52.538;6.108;2022-12-20T06:21:13;101004.94;;;8.97;100.00
73651;BME280;61944;52.538;6.108;2022-12-20T06:23:38;101006.47;;;8.94;100.00
73651;BME280;61944;52.538;6.108;2022-12-20T06:26:04;100997.06;;;9.02;100.00
73651;BME280;61944;52.538;6.108;2022-12-20T06:28:33;100986.00;;;9.06;100.00
73651;BME280;61944;52.538;6.108;2022-12-20T06:30:58;100988.25;;;9.00;100.00
73651;BME280;61944;52.538;6.108;2022-12-20T06:33:24;100990.63;;;8.98;100.00
73651;BME280;61944;52.538;6.108;2022-12-20T06:35:50;100990.25;;;9.00;100.00
73651;BME280;61944;52.538;6.108;2022-12-20T06:38:15;100976.28;;;9.00;100.00
73651;BME280;61944;52.538;6.108;2022-12-20T06:40:41;100966.97;;;8.92;100.00
73651;BME280;61944;52.538;6.108;2022-12-20T06:43:06;100973.44;;;8.96;100.00
73651;BME280;61944;52.538;6.108;2022-12-20T06:45:32;100971.44;;;8.97;100.00
73651;BME280;61944;52.538;6.108;2022-12-20T06:47:57;100974.03;;;9.05;100.00
73651;BME280;61944;52.538;6.108;2022-12-20T06:50:24;100971.09;;;8.98;100.00
73651;BME280;61944;52.538;6.108;2022-12-20T06:52:49;100962.31;;;9.00;100.00
73651;BME280;61944;52.538;6.108;2022-12-20T06:55:16;100963.75;;;9.09;100.00
73651;BME280;61944;52.538;6.108;2022-12-20T06:57:41;100968.78;;;9.04;100.00
73651;BME280;61944;52.538;6.108;2022-12-20T07:00:07;100967.63;;;9.05;100.00
73651;BME280;61944;52.538;6.108;2022-12-20T07:02:35;100963.75;;;9.09;100.00
73651;BME280;61944;52.538;6.108;2022-12-20T07:05:00;100966.34;;;9.02;100.00
73651;BME280;61944;52.538;6.108;2022-12-20T07:07:25;100986.09;;;9.09;100.00
73651;BME280;61944;52.538;6.108;2022-12-20T07:09:51;100977.53;;;9.02;100.00
73651;BME280;61944;52.538;6.108;2022-12-20T07:12:16;100969.44;;;8.97;100.00
73651;BME280;61944;52.538;6.108;2022-12-20T07:14:42;100967.44;;;9.33;100.00
73651;BME280;61944;52.538;6.108;2022-12-20T07:17:07;100954.47;;;9.25;100.00
73651;BME280;61944;52.538;6.108;2022-12-20T07:19:33;100963.25;;;9.43;100.00
73651;BME280;61944;52.538;6.108;2022-12-20T07:22:01;100966.69;;;9.16;100.00
73651;BME280;61944;52.538;6.108;2022-12-20T07:24:26;100960.81;;;9.22;100.00
73651;BME280;61944;52.538;6.108;2022-12-20T07:26:52;100963.88;;;9.16;100.00
73651;BME280;61944;52.538;6.108;2022-12-20T07:29:17;100961.22;;;9.04;100.00
73651;BME280;61944;52.538;6.108;2022-12-20T07:31:42;100964.47;;;9.06;100.00
73651;BME280;61944;52.538;6.108;2022-12-20T07:34:08;100969.16;;;9.02;100.00
73651;BME280;61944;52.538;6.108;2022-12-20T07:36:33;100966.53;;;9.09;100.00
73651;BME280;61944;52.538;6.108;2022-12-20T07:38:59;100965.66;;;9.05;100.00
73651;BME280;61944;52.538;6.108;2022-12-20T07:41:24;100964.75;;;9.01;100.00
73651;BME280;61944;52.538;6.108;2022-12-20T07:43:50;100963.00;;;9.12;100.00
73651;BME280;61944;52.538;6.108;2022-12-20T07:46:16;100978.72;;;9.21;100.00
73651;BME280;61944;52.538;6.108;2022-12-20T07:48:42;100966.53;;;9.09;100.00
73651;BME280;61944;52.538;6.108;2022-12-20T07:51:14;100974.78;;;9.22;100.00
73651;BME280;61944;52.538;6.108;2022-12-20T07:53:45;100969.47;;;9.16;100.00
73651;BME280;61944;52.538;6.108;2022-12-20T07:56:13;100968.59;;;9.12;100.00
73651;BME280;61944;52.538;6.108;2022-12-20T07:58:40;100973.91;;;9.18;100.00
73651;BME280;61944;52.538;6.108;2022-12-20T08:01:07;100973.00;;;9.13;100.00
73651;BME280;61944;52.538;6.108;2022-12-20T08:03:38;100986.88;;;9.10;100.00
73651;BME280;61944;52.538;6.108;2022-12-20T08:06:06;100977.13;;;9.20;100.00
73651;BME280;61944;52.538;6.108;2022-12-20T08:08:35;100971.81;;;9.14;100.00
73651;BME280;61944;52.538;6.108;2022-12-20T08:11:03;100981.38;;;9.13;100.00
73651;BME280;61944;52.538;6.108;2022-12-20T08:13:31;100956.91;;;9.07;100.00
73651;BME280;61944;52.538;6.108;2022-12-20T08:15:59;100972.56;;;9.11;100.00
73651;BME280;61944;52.538;6.108;2022-12-20T08:18:25;100985.34;;;9.12;100.00
73651;BME280;61944;52.538;6.108;2022-12-20T08:20:50;100978.28;;;9.19;100.00
73651;BME280;61944;52.538;6.108;2022-12-20T08:23:16;100976.31;;;9.19;100.00
73651;BME280;61944;52.538;6.108;2022-12-20T08:25:41;100981.16;;;9.22;100.00
73651;BME280;61944;52.538;6.108;2022-12-20T08:28:06;100978.72;;;9.21;100.00
73651;BME280;61944;52.538;6.108;2022-12-20T08:30:32;100974.47;;;9.27;100.00
73651;BME280;61944;52.538;6.108;2022-12-20T08:32:57;100985.94;;;9.22;100.00
73651;BME280;61944;52.538;6.108;2022-12-20T08:35:23;100977.44;;;9.34;100.00
73651;BME280;61944;52.538;6.108;2022-12-20T08:37:51;100979.25;;;9.26;100.00
73651;BME280;61944;52.538;6.108;2022-12-20T08:40:17;100963.03;;;9.32;100.00
73651;BME280;61944;52.538;6.108;2022-12-20T08:42:43;100966.47;;;9.25;100.00
73651;BME280;61944;52.538;6.108;2022-12-20T08:45:09;100962.41;;;9.23;100.00
73651;BME280;61944;52.538;6.108;2022-12-20T08:47:35;100955.69;;;9.24;100.00
73651;BME280;61944;52.538;6.108;2022-12-20T08:50:02;100961.47;;;9.34;100.00
73651;BME280;61944;52.538;6.108;2022-12-20T08:52:28;100959.34;;;9.28;100.00
73651;BME280;61944;52.538;6.108;2022-12-20T08:54:53;100968.16;;;9.30;100.00
73651;BME280;61944;52.538;6.108;2022-12-20T08:57:19;100955.72;;;9.27;100.00
73651;BME280;61944;52.538;6.108;2022-12-20T08:59:44;100961.84;;;9.33;100.00
73651;BME280;61944;52.538;6.108;2022-12-20T09:02:10;100959.50;;;9.15;100.00
73651;BME280;61944;52.538;6.108;2022-12-20T09:04:35;100959.03;;;9.13;100.00
73651;BME280;61944;52.538;6.108;2022-12-20T09:07:01;100962.72;;;9.18;100.00
73651;BME280;61944;52.538;6.108;2022-12-20T09:09:27;100949.47;;;9.14;100.00
73651;BME280;61944;52.538;6.108;2022-12-20T09:11:52;100948.75;;;9.18;100.00
73651;BME280;61944;52.538;6.108;2022-12-20T09:14:17;100955.16;;;9.18;100.00
73651;BME280;61944;52.538;6.108;2022-12-20T09:16:43;100954.94;;;9.27;100.00
73651;BME280;61944;52.538;6.108;2022-12-20T09:19:13;100951.69;;;9.25;100.00
73651;BME280;61944;52.538;6.108;2022-12-20T09:21:38;100954.47;;;9.25;100.00
73651;BME280;61944;52.538;6.108;2022-12-20T09:24:04;100958.03;;;9.22;100.00
73651;BME280;61944;52.538;6.108;2022-12-20T09:26:30;100956.13;;;9.26;100.00
73651;BME280;61944;52.538;6.108;2022-12-20T09:28:57;100958.06;;;9.25;100.00
73651;BME280;61944;52.538;6.108;2022-12-20T09:31:24;100953.91;;;9.35;100.00
73651;BME280;61944;52.538;6.108;2022-12-20T09:33:55;100953.00;;;9.31;100.00
73651;BME280;61944;52.538;6.108;2022-12-20T09:36:23;100952.34;;;9.38;100.00
73651;BME280;61944;52.538;6.108;2022-12-20T09:38:49;100953.16;;;9.38;100.00
73651;BME280;61944;52.538;6.108;2022-12-20T09:43:47;100956.91;;;9.26;100.00
73651;BME280;61944;52.538;6.108;2022-12-20T09:46:14;100961.75;;;9.29;100.00
73651;BME280;61944;52.538;6.108;2022-12-20T09:48:41;100958.16;;;9.29;100.00
73651;BME280;61944;52.538;6.108;2022-12-20T09:56:46;100959.53;;;9.19;100.00
73651;BME280;61944;52.538;6.108;2022-12-20T09:59:17;100964.19;;;9.31;100.00
73651;BME280;61944;52.538;6.108;2022-12-20T10:01:45;100964.94;;;9.28;100.00
73651;BME280;61944;52.538;6.108;2022-12-20T10:06:49;100944.28;;;9.32;100.00
73651;BME280;61944;52.538;6.108;2022-12-20T10:22:57;100929.50;;;9.32;100.00
73651;BME280;61944;52.538;6.108;2022-12-20T10:25:30;100941.75;;;9.27;100.00
73651;BME280;61944;52.538;6.108;2022-12-20T10:27:56;100936.69;;;9.33;100.00
73651;BME280;61944;52.538;6.108;2022-12-20T10:30:26;100934.22;;;9.28;100.00
73651;BME280;61944;52.538;6.108;2022-12-20T10:32:54;100935.81;;;9.29;100.00
73651;BME280;61944;52.538;6.108;2022-12-20T10:38:05;100937.13;;;9.35;100.00
73651;BME280;61944;52.538;6.108;2022-12-20T10:40:38;100940.25;;;9.30;100.00
73651;BME280;61944;52.538;6.108;2022-12-20T10:43:05;100921.84;;;9.29;100.00
73651;BME280;61944;52.538;6.108;2022-12-20T10:45:38;100933.97;;;9.36;100.00
73651;BME280;61944;52.538;6.108;2022-12-20T10:51:03;100932.00;;;9.37;100.00
73651;BME280;61944;52.538;6.108;2022-12-20T10:53:50;100917.94;;;9.33;100.00
73651;BME280;61944;52.538;6.108;2022-12-20T10:56:19;100913.91;;;9.31;100.00
73651;BME280;61944;52.538;6.108;2022-12-20T11:01:43;100918.81;;;9.38;100.00
73651;BME280;61944;52.538;6.108;2022-12-20T11:06:52;100906.09;;;9.40;100.00
73651;BME280;61944;52.538;6.108;2022-12-20T11:12:00;100901.38;;;9.44;100.00
73651;BME280;61944;52.538;6.108;2022-12-20T11:14:26;100895.00;;;9.44;100.00
73651;BME280;61944;52.538;6.108;2022-12-20T11:16:53;100899.47;;;9.48;100.00
73651;BME280;61944;52.538;6.108;2022-12-20T11:27:31;100893.00;;;9.44;100.00
73651;BME280;61944;52.538;6.108;2022-12-20T11:30:14;100883.91;;;9.47;100.00
73651;BME280;61944;52.538;6.108;2022-12-20T11:35:21;100888.63;;;9.43;100.00
73651;BME280;61944;52.538;6.108;2022-12-20T11:37:58;100893.41;;;9.43;100.00
73651;BME280;61944;52.538;6.108;2022-12-20T11:40:33;100892.38;;;9.51;100.00
73651;BME280;61944;52.538;6.108;2022-12-20T11:49:02;100888.72;;;9.50;100.00
73651;BME280;61944;52.538;6.108;2022-12-20T11:51:52;100885.06;;;9.46;100.00
73651;BME280;61944;52.538;6.108;2022-12-20T11:54:30;100886.38;;;9.52;100.00
73651;BME280;61944;52.538;6.108;2022-12-20T11:57:03;100887.13;;;9.49;100.00
73651;BME280;61944;52.538;6.108;2022-12-20T11:59:42;100884.47;;;9.56;100.00
73651;BME280;61944;52.538;6.108;2022-12-20T12:02:17;100890.72;;;9.50;100.00
73651;BME280;61944;52.538;6.108;2022-12-20T12:04:53;100890.81;;;9.53;100.00
73651;BME280;61944;52.538;6.108;2022-12-20T12:07:31;100882.97;;;9.63;100.00
73651;BME280;61944;52.538;6.108;2022-12-20T12:12:32;100890.50;;;9.59;100.00
73651;BME280;61944;52.538;6.108;2022-12-20T12:28:59;100874.78;;;9.73;100.00
73651;BME280;61944;52.538;6.108;2022-12-20T12:31:38;100884.22;;;9.65;100.00
73651;BME280;61944;52.538;6.108;2022-12-20T12:39:51;100882.69;;;9.68;100.00
73651;BME280;61944;52.538;6.108;2022-12-20T12:43:18;100879.47;;;9.66;100.00
73651;BME280;61944;52.538;6.108;2022-12-20T12:48:06;100872.25;;;9.65;100.00
73651;BME280;61944;52.538;6.108;2022-12-20T12:50:37;100872.38;;;9.72;100.00
73651;BME280;61944;52.538;6.108;2022-12-20T12:53:13;100884.28;;;9.69;100.00
73651;BME280;61944;52.538;6.108;2022-12-20T12:55:51;100869.16;;;9.70;100.00
73651;BME280;61944;52.538;6.108;2022-12-20T13:00:52;100874.41;;;9.75;100.00
73651;BME280;61944;52.538;6.108;2022-12-20T13:03:40;100871.63;;;9.75;100.00
73651;BME280;61944;52.538;6.108;2022-12-20T13:11:36;100875.19;;;9.72;100.00
73651;BME280;61944;52.538;6.108;2022-12-20T13:21:58;100877.16;;;9.71;100.00
73651;BME280;61944;52.538;6.108;2022-12-20T13:27:36;100878.00;;;9.75;100.00
73651;BME280;61944;52.538;6.108;2022-12-20T13:40:55;100876.41;;;9.74;100.00
73651;BME280;61944;52.538;6.108;2022-12-20T13:45:50;100888.75;;;9.73;100.00
73651;BME280;61944;52.538;6.108;2022-12-20T13:48:21;100870.81;;;9.74;100.00
73651;BME280;61944;52.538;6.108;2022-12-20T13:50:51;100872.44;;;9.75;100.00
73651;BME280;61944;52.538;6.108;2022-12-20T13:53:19;100878.81;;;9.76;100.00
73651;BME280;61944;52.538;6.108;2022-12-20T13:55:46;100863.25;;;9.75;100.00
73651;BME280;61944;52.538;6.108;2022-12-20T13:58:17;100878.81;;;9.76;100.00
73651;BME280;61944;52.538;6.108;2022-12-20T14:00:45;100884.84;;;9.78;100.00
73651;BME280;61944;52.538;6.108;2022-12-20T14:03:26;100875.19;;;9.72;100.00
73651;BME280;61944;52.538;6.108;2022-12-20T14:06:01;100868.75;;;9.71;100.00
73651;BME280;61944;52.538;6.108;2022-12-20T14:08:35;100864.84;;;9.76;100.00
73651;BME280;61944;52.538;6.108;2022-12-20T14:13:37;100880.44;;;9.77;100.00
73651;BME280;61944;52.538;6.108;2022-12-20T14:16:22;100881.22;;;9.74;100.00
73651;BME280;61944;52.538;6.108;2022-12-20T14:18:49;100882.38;;;9.73;100.00
73651;BME280;61944;52.538;6.108;2022-12-20T14:21:15;100884.72;;;9.71;100.00
73651;BME280;61944;52.538;6.108;2022-12-20T14:23:45;100892.38;;;9.74;100.00
73651;BME280;61944;52.538;6.108;2022-12-20T14:26:14;100882.69;;;9.91;100.00
73651;BME280;61944;52.538;6.108;2022-12-20T14:28:56;100884.84;;;9.78;100.00
73651;BME280;61944;52.538;6.108;2022-12-20T14:31:36;100888.06;;;9.80;100.00
73651;BME280;61944;52.538;6.108;2022-12-20T14:34:05;100883.56;;;9.72;100.00
73651;BME280;61944;52.538;6.108;2022-12-20T14:36:47;100878.88;;;9.80;100.00
73651;BME280;61944;52.538;6.108;2022-12-20T14:42:01;100866.84;;;9.75;100.00
73651;BME280;61944;52.538;6.108;2022-12-20T14:44:29;100861.19;;;9.72;100.00
73651;BME280;61944;52.538;6.108;2022-12-20T14:47:12;100867.63;;;9.76;100.00
73651;BME280;61944;52.538;6.108;2022-12-20T14:49:40;100870.88;;;9.78;100.00
73651;BME280;61944;52.538;6.108;2022-12-20T14:52:36;100872.81;;;9.74;100.00
73651;BME280;61944;52.538;6.108;2022-12-20T14:55:10;100867.22;;;9.74;100.00
73651;BME280;61944;52.538;6.108;2022-12-20T15:08:24;100887.16;;;9.72;100.00
73651;BME280;61944;52.538;6.108;2022-12-20T15:10:59;100878.81;;;9.76;100.00
73651;BME280;61944;52.538;6.108;2022-12-20T15:13:44;100861.63;;;9.74;100.00
73651;BME280;61944;52.538;6.108;2022-12-20T15:16:22;100854.84;;;9.75;100.00
73651;BME280;61944;52.538;6.108;2022-12-20T15:18:49;100855.63;;;9.72;100.00
73651;BME280;61944;52.538;6.108;2022-12-20T15:21:21;100843.34;;;9.80;100.00